createdAt,value
2018-12-03T00:00:37.592Z,0.00
2018-12-03T00:01:37.579Z,0.00
2018-12-03T00:02:37.592Z,0.00
2018-12-03T00:03:37.576Z,0.00
2018-12-03T00:04:37.896Z,0.00
2018-12-03T00:05:37.522Z,0.00
2018-12-03T00:06:37.524Z,0.00
2018-12-03T00:07:37.504Z,0.00
2018-12-03T00:08:37.560Z,0.00
2018-12-03T00:09:37.493Z,0.00
2018-12-03T00:10:37.489Z,0.00
2018-12-03T00:11:37.453Z,0.00
2018-12-03T00:12:37.447Z,0.00
2018-12-03T00:13:37.440Z,0.00
2018-12-03T00:14:37.446Z,0.00
2018-12-03T00:15:37.424Z,0.00
2018-12-03T00:16:37.403Z,0.00
2018-12-03T00:17:37.397Z,0.00
2018-12-03T00:18:37.384Z,0.00
2018-12-03T00:19:37.387Z,0.00
2018-12-03T00:20:37.362Z,0.00
2018-12-03T00:21:37.360Z,0.00
2018-12-03T00:22:37.324Z,0.00
2018-12-03T00:23:37.322Z,0.00
2018-12-03T00:24:37.332Z,0.00
2018-12-03T00:25:37.297Z,0.00
2018-12-03T00:26:37.293Z,0.00
2018-12-03T00:27:37.275Z,0.00
2018-12-03T00:28:37.265Z,0.00
2018-12-03T00:29:37.266Z,0.00
2018-12-03T00:30:37.249Z,0.00
2018-12-03T00:31:37.236Z,0.00
2018-12-03T00:32:37.217Z,0.00
2018-12-03T00:33:37.225Z,0.00
2018-12-03T00:34:37.222Z,0.00
2018-12-03T00:35:37.201Z,0.00
2018-12-03T00:36:37.179Z,0.00
2018-12-03T00:37:37.170Z,0.00
2018-12-03T00:38:37.155Z,0.00
2018-12-03T00:39:37.164Z,0.00
2018-12-03T00:40:37.134Z,0.00
2018-12-03T00:41:37.117Z,0.00
2018-12-03T00:42:37.107Z,0.00
2018-12-03T00:43:37.102Z,0.00
2018-12-03T00:44:37.097Z,0.00
2018-12-03T00:45:37.081Z,0.00
2018-12-03T00:46:37.079Z,0.00
2018-12-03T00:47:37.058Z,0.00
2018-12-03T00:48:37.038Z,0.00
2018-12-03T00:49:37.036Z,0.00
2018-12-03T00:50:37.015Z,0.00
2018-12-03T00:51:37.013Z,0.00
2018-12-03T00:52:36.991Z,0.00
2018-12-03T00:53:36.999Z,0.00
2018-12-03T00:54:36.990Z,0.00
2018-12-03T00:55:36.957Z,0.00
2018-12-03T00:56:36.953Z,0.00
2018-12-03T00:57:36.939Z,0.00
2018-12-03T00:58:36.934Z,0.00
2018-12-03T00:59:36.929Z,0.00
2018-12-03T01:00:36.922Z,0.00
2018-12-03T01:01:36.902Z,0.00
2018-12-03T01:02:36.893Z,0.00
2018-12-03T01:03:36.879Z,0.00
2018-12-03T01:04:36.864Z,0.00
2018-12-03T01:05:36.888Z,0.00
2018-12-03T01:06:36.836Z,0.00
2018-12-03T01:07:36.833Z,0.00
2018-12-03T01:08:36.818Z,0.00
2018-12-03T01:09:36.800Z,0.00
2018-12-03T01:10:36.805Z,0.00
2018-12-03T01:11:36.784Z,0.00
2018-12-03T01:12:36.766Z,0.00
2018-12-03T01:13:36.771Z,0.00
2018-12-03T01:14:36.763Z,0.00
2018-12-03T01:15:36.753Z,0.00
2018-12-03T01:16:36.739Z,0.00
2018-12-03T01:17:36.713Z,0.00
2018-12-03T01:18:36.728Z,0.00
2018-12-03T01:19:36.690Z,0.00
2018-12-03T01:20:36.700Z,0.00
2018-12-03T01:21:36.672Z,0.00
2018-12-03T01:22:36.659Z,0.00
2018-12-03T01:23:36.656Z,0.00
2018-12-03T01:24:36.645Z,0.00
2018-12-03T01:25:36.699Z,0.00
2018-12-03T01:26:36.612Z,0.00
2018-12-03T01:27:36.609Z,0.00
2018-12-03T01:28:36.589Z,0.00
2018-12-03T01:29:36.574Z,0.00
2018-12-03T01:30:36.583Z,0.00
2018-12-03T01:31:36.556Z,0.00
2018-12-03T01:32:36.551Z,0.00
2018-12-03T01:33:36.536Z,0.00
2018-12-03T01:34:36.516Z,0.00
2018-12-03T01:35:36.573Z,0.00
2018-12-03T01:36:36.510Z,0.00
2018-12-03T01:37:36.489Z,0.00
2018-12-03T01:38:36.477Z,0.00
2018-12-03T01:39:36.476Z,0.00
2018-12-03T01:40:36.481Z,0.00
2018-12-03T01:41:36.449Z,0.00
2018-12-03T01:42:36.442Z,0.00
2018-12-03T01:43:36.466Z,0.00
2018-12-03T01:44:36.417Z,0.00
2018-12-03T01:45:36.416Z,0.00
2018-12-03T01:46:36.395Z,0.00
2018-12-03T01:47:36.384Z,0.00
2018-12-03T01:48:36.368Z,0.00
2018-12-03T01:49:36.357Z,0.00
2018-12-03T01:50:36.371Z,0.00
2018-12-03T01:51:36.334Z,0.00
2018-12-03T01:52:36.326Z,0.00
2018-12-03T01:53:36.309Z,0.00
2018-12-03T01:54:36.336Z,0.00
2018-12-03T01:55:36.310Z,0.00
2018-12-03T01:56:36.284Z,0.00
2018-12-03T01:57:37.211Z,0.00
2018-12-03T01:58:36.259Z,0.00
2018-12-03T01:59:36.242Z,0.00
2018-12-03T02:00:36.260Z,0.00
2018-12-03T02:01:36.218Z,0.00
2018-12-03T02:02:36.211Z,0.00
2018-12-03T02:03:36.225Z,0.00
2018-12-03T02:04:36.198Z,0.00
2018-12-03T02:05:36.187Z,0.00
2018-12-03T02:06:36.180Z,0.00
2018-12-03T02:07:36.148Z,0.00
2018-12-03T02:08:36.157Z,0.00
2018-12-03T02:09:36.129Z,0.00
2018-12-03T02:10:36.148Z,0.00
2018-12-03T02:11:36.117Z,0.00
2018-12-03T02:12:36.095Z,0.00
2018-12-03T02:13:36.090Z,0.00
2018-12-03T02:14:36.078Z,0.00
2018-12-03T02:15:36.096Z,0.00
2018-12-03T02:16:36.053Z,0.00
2018-12-03T02:17:36.049Z,0.00
2018-12-03T02:18:36.028Z,0.00
2018-12-03T02:19:36.026Z,0.00
2018-12-03T02:20:36.008Z,0.00
2018-12-03T02:21:36.024Z,0.00
2018-12-03T02:22:35.991Z,0.00
2018-12-03T02:23:35.979Z,0.00
2018-12-03T02:24:35.962Z,0.00
2018-12-03T02:25:35.952Z,0.00
2018-12-03T02:26:35.947Z,0.00
2018-12-03T02:27:35.921Z,0.00
2018-12-03T02:28:35.925Z,0.00
2018-12-03T02:29:35.911Z,0.00
2018-12-03T02:30:35.908Z,0.00
2018-12-03T02:31:35.908Z,0.00
2018-12-03T02:32:35.869Z,0.00
2018-12-03T02:33:35.866Z,0.00
2018-12-03T02:34:35.856Z,0.00
2018-12-03T02:35:35.841Z,0.00
2018-12-03T02:36:36.241Z,0.00
2018-12-03T02:37:35.821Z,0.00
2018-12-03T02:38:35.809Z,0.00
2018-12-03T02:39:35.791Z,0.00
2018-12-03T02:40:35.781Z,0.00
2018-12-03T02:41:35.791Z,0.00
2018-12-03T02:42:35.764Z,0.00
2018-12-03T02:43:36.123Z,0.00
2018-12-03T02:44:35.744Z,0.00
2018-12-03T02:45:35.747Z,0.00
2018-12-03T02:46:35.731Z,0.00
2018-12-03T02:47:35.702Z,0.00
2018-12-03T02:48:35.701Z,0.00
2018-12-03T02:49:35.682Z,0.00
2018-12-03T02:50:35.673Z,0.00
2018-12-03T02:51:35.675Z,0.00
2018-12-03T02:52:35.688Z,0.00
2018-12-03T02:53:35.630Z,0.00
2018-12-03T02:54:35.636Z,0.00
2018-12-03T02:55:35.621Z,0.00
2018-12-03T02:56:35.627Z,0.00
2018-12-03T02:57:35.590Z,0.00
2018-12-03T02:58:35.595Z,0.00
2018-12-03T02:59:35.566Z,0.00
2018-12-03T03:00:35.563Z,0.00
2018-12-03T03:01:35.546Z,0.00
2018-12-03T03:02:35.551Z,0.00
2018-12-03T03:03:35.517Z,0.00
2018-12-03T03:04:35.526Z,0.00
2018-12-03T03:05:35.514Z,0.00
2018-12-03T03:06:35.492Z,0.00
2018-12-03T03:07:35.500Z,0.00
2018-12-03T03:08:35.469Z,0.00
2018-12-03T03:09:35.454Z,0.00
2018-12-03T03:10:35.448Z,0.00
2018-12-03T03:11:35.434Z,0.00
2018-12-03T03:12:35.444Z,0.00
2018-12-03T03:13:35.415Z,0.00
2018-12-03T03:14:35.400Z,0.00
2018-12-03T03:15:35.394Z,0.00
2018-12-03T03:16:35.394Z,0.00
2018-12-03T03:17:35.394Z,0.00
2018-12-03T03:18:35.354Z,0.00
2018-12-03T03:19:35.348Z,0.00
2018-12-03T03:20:35.351Z,0.00
2018-12-03T03:21:35.326Z,0.00
2018-12-03T03:22:35.333Z,0.00
2018-12-03T03:23:35.296Z,0.00
2018-12-03T03:24:35.287Z,0.00
2018-12-03T03:25:35.278Z,0.00
2018-12-03T03:26:35.269Z,0.00
2018-12-03T03:27:35.342Z,0.00
2018-12-03T03:28:35.244Z,0.00
2018-12-03T03:29:35.243Z,0.00
2018-12-03T03:30:35.241Z,0.00
2018-12-03T03:31:35.238Z,0.00
2018-12-03T03:32:35.216Z,0.00
2018-12-03T03:33:35.190Z,0.00
2018-12-03T03:34:35.217Z,0.00
2018-12-03T03:35:35.170Z,0.00
2018-12-03T03:36:35.153Z,0.00
2018-12-03T03:37:35.167Z,0.00
2018-12-03T03:38:35.138Z,0.00
2018-12-03T03:39:35.125Z,0.00
2018-12-03T03:40:35.109Z,0.00
2018-12-03T03:41:35.093Z,0.00
2018-12-03T03:42:35.113Z,0.00
2018-12-03T03:43:35.082Z,0.00
2018-12-03T03:44:35.071Z,0.00
2018-12-03T03:45:35.060Z,0.00
2018-12-03T03:46:35.055Z,0.00
2018-12-03T03:47:35.056Z,0.00
2018-12-03T03:48:35.020Z,0.00
2018-12-03T03:49:35.011Z,0.00
2018-12-03T03:50:35.001Z,0.00
2018-12-03T03:51:34.985Z,0.00
2018-12-03T03:52:35.009Z,0.00
2018-12-03T03:53:34.969Z,0.00
2018-12-03T03:54:34.977Z,0.00
2018-12-03T03:55:34.948Z,0.00
2018-12-03T03:56:34.945Z,0.00
2018-12-03T03:57:34.931Z,0.00
2018-12-03T03:58:34.912Z,0.00
2018-12-03T03:59:34.899Z,0.00
2018-12-03T04:00:34.898Z,0.00
2018-12-03T04:01:34.902Z,0.00
2018-12-03T04:02:34.874Z,0.00
2018-12-03T04:03:34.854Z,0.00
2018-12-03T04:04:34.850Z,0.00
2018-12-03T04:05:34.848Z,0.00
2018-12-03T04:06:34.830Z,0.00
2018-12-03T04:07:34.810Z,0.00
2018-12-03T04:08:34.813Z,0.00
2018-12-03T04:09:34.815Z,0.00
2018-12-03T04:10:34.794Z,0.00
2018-12-03T04:11:34.768Z,0.00
2018-12-03T04:12:34.749Z,0.00
2018-12-03T04:13:34.763Z,0.00
2018-12-03T04:14:34.729Z,0.00
2018-12-03T04:15:34.723Z,0.00
2018-12-03T04:16:34.709Z,0.00
2018-12-03T04:17:34.703Z,0.00
2018-12-03T04:18:34.715Z,0.00
2018-12-03T04:19:34.680Z,0.00
2018-12-03T04:20:34.665Z,0.00
2018-12-03T04:21:34.657Z,0.00
2018-12-03T04:22:34.641Z,0.00
2018-12-03T04:23:34.647Z,0.00
2018-12-03T04:24:34.620Z,0.00
2018-12-03T04:25:34.812Z,0.00
2018-12-03T04:26:34.597Z,0.00
2018-12-03T04:27:34.580Z,0.00
2018-12-03T04:28:34.594Z,0.00
2018-12-03T04:29:34.568Z,0.00
2018-12-03T04:30:34.547Z,0.00
2018-12-03T04:31:34.533Z,0.00
2018-12-03T04:32:34.525Z,0.00
2018-12-03T04:33:34.546Z,0.00
2018-12-03T04:34:34.515Z,0.00
2018-12-03T04:35:34.502Z,0.00
2018-12-03T04:36:34.492Z,0.00
2018-12-03T04:37:34.489Z,0.00
2018-12-03T04:38:34.469Z,0.00
2018-12-03T04:39:34.445Z,0.00
2018-12-03T04:40:34.440Z,0.00
2018-12-03T04:41:34.429Z,0.00
2018-12-03T04:42:34.414Z,0.00
2018-12-03T04:43:34.446Z,0.00
2018-12-03T04:44:34.401Z,0.00
2018-12-03T04:45:34.382Z,0.00
2018-12-03T04:46:34.375Z,0.00
2018-12-03T04:47:34.373Z,0.00
2018-12-03T04:48:34.363Z,0.00
2018-12-03T04:49:34.343Z,0.00
2018-12-03T04:50:34.336Z,0.00
2018-12-03T04:51:34.328Z,0.00
2018-12-03T04:52:34.318Z,0.00
2018-12-03T04:53:34.315Z,0.00
2018-12-03T04:54:34.355Z,0.00
2018-12-03T04:55:34.266Z,0.00
2018-12-03T04:56:34.268Z,0.00
2018-12-03T04:57:34.256Z,0.00
2018-12-03T04:58:34.252Z,0.00
2018-12-03T04:59:34.243Z,0.00
2018-12-03T05:00:34.223Z,0.00
2018-12-03T05:01:34.201Z,0.00
2018-12-03T05:02:34.194Z,0.00
2018-12-03T05:03:34.192Z,0.00
2018-12-03T05:04:34.166Z,0.00
2018-12-03T05:05:34.161Z,0.00
2018-12-03T05:06:34.140Z,0.00
2018-12-03T05:07:34.162Z,0.00
2018-12-03T05:08:34.142Z,0.00
2018-12-03T05:09:34.116Z,0.00
2018-12-03T05:10:34.104Z,0.00
2018-12-03T05:11:34.094Z,0.00
2018-12-03T05:12:34.072Z,0.00
2018-12-03T05:13:34.084Z,0.00
2018-12-03T05:14:34.056Z,0.00
2018-12-03T05:15:34.058Z,0.00
2018-12-03T05:16:34.042Z,0.00
2018-12-03T05:17:34.025Z,0.00
2018-12-03T05:18:34.020Z,0.00
2018-12-03T05:19:34.021Z,0.00
2018-12-03T05:20:33.984Z,0.00
2018-12-03T05:21:34.008Z,0.00
2018-12-03T05:22:33.973Z,0.00
2018-12-03T05:23:33.966Z,0.00
2018-12-03T05:24:33.981Z,0.00
2018-12-03T05:25:33.938Z,0.00
2018-12-03T05:26:33.926Z,0.00
2018-12-03T05:27:33.922Z,0.00
2018-12-03T05:28:33.904Z,0.00
2018-12-03T05:29:33.897Z,0.00
2018-12-03T05:30:33.884Z,0.00
2018-12-03T05:31:33.872Z,0.00
2018-12-03T05:32:33.860Z,0.00
2018-12-03T05:33:33.860Z,0.00
2018-12-03T05:34:33.857Z,0.00
2018-12-03T05:35:33.817Z,0.00
2018-12-03T05:36:33.818Z,0.00
2018-12-03T05:37:33.828Z,0.00
2018-12-03T05:38:33.793Z,0.00
2018-12-03T05:39:33.789Z,0.00
2018-12-03T05:40:33.772Z,0.00
2018-12-03T05:41:33.753Z,0.00
2018-12-03T05:42:33.742Z,0.00
2018-12-03T05:43:33.752Z,0.00
2018-12-03T05:44:33.755Z,0.00
2018-12-03T05:45:33.704Z,0.00
2018-12-03T05:46:34.842Z,0.00
2018-12-03T05:47:33.721Z,0.00
2018-12-03T05:48:33.665Z,0.00
2018-12-03T05:49:33.669Z,0.00
2018-12-03T05:50:33.653Z,0.00
2018-12-03T05:51:33.848Z,0.00
2018-12-03T05:52:33.623Z,0.00
2018-12-03T05:53:33.625Z,0.00
2018-12-03T05:54:33.618Z,0.00
2018-12-03T05:55:33.597Z,0.00
2018-12-03T05:56:33.589Z,0.00
2018-12-03T05:57:33.568Z,0.00
2018-12-03T05:58:33.562Z,0.00
2018-12-03T05:59:33.568Z,0.00
2018-12-03T06:00:33.541Z,0.00
2018-12-03T06:01:33.525Z,0.00
2018-12-03T06:02:33.539Z,0.00
2018-12-03T06:03:33.507Z,0.00
2018-12-03T06:04:33.508Z,0.00
2018-12-03T06:05:33.493Z,0.00
2018-12-03T06:06:33.485Z,0.00
2018-12-03T06:07:33.455Z,0.00
2018-12-03T06:08:33.454Z,0.00
2018-12-03T06:09:33.448Z,0.00
2018-12-03T06:10:33.432Z,0.00
2018-12-03T06:11:33.416Z,0.00
2018-12-03T06:12:33.410Z,0.00
2018-12-03T06:13:33.389Z,0.00
2018-12-03T06:14:33.389Z,0.00
2018-12-03T06:15:33.379Z,0.00
2018-12-03T06:16:33.364Z,0.00
2018-12-03T06:17:33.344Z,0.00
2018-12-03T06:18:33.335Z,0.00
2018-12-03T06:19:34.231Z,0.00
2018-12-03T06:20:33.345Z,0.00
2018-12-03T06:21:33.297Z,0.00
2018-12-03T06:22:33.295Z,0.00
2018-12-03T06:23:33.293Z,0.00
2018-12-03T06:24:33.273Z,0.00
2018-12-03T06:25:33.274Z,0.00
2018-12-03T06:26:33.289Z,0.00
2018-12-03T06:27:33.231Z,0.00
2018-12-03T06:28:33.230Z,0.00
2018-12-03T06:29:33.212Z,0.00
2018-12-03T06:30:33.213Z,0.00
2018-12-03T06:31:33.235Z,0.00
2018-12-03T06:32:33.185Z,4.00
2018-12-03T06:33:33.172Z,4.00
2018-12-03T06:34:33.204Z,0.00
2018-12-03T06:35:33.177Z,0.00
2018-12-03T06:36:33.141Z,0.00
2018-12-03T06:37:33.121Z,0.00
2018-12-03T06:38:33.117Z,4.00
2018-12-03T06:39:33.109Z,4.00
2018-12-03T06:40:33.111Z,4.00
2018-12-03T06:41:33.079Z,4.00
2018-12-03T06:42:33.067Z,4.00
2018-12-03T06:43:33.060Z,4.00
2018-12-03T06:44:33.063Z,4.00
2018-12-03T06:45:33.040Z,4.00
2018-12-03T06:46:33.037Z,4.00
2018-12-03T06:47:33.017Z,4.00
2018-12-03T06:48:33.006Z,4.00
2018-12-03T06:49:33.018Z,8.00
2018-12-03T06:50:32.995Z,8.00
2018-12-03T06:51:32.965Z,8.00
2018-12-03T06:52:32.958Z,4.00
2018-12-03T06:53:32.946Z,8.00
2018-12-03T06:54:32.957Z,12.00
2018-12-03T06:55:32.941Z,12.00
2018-12-03T06:56:32.912Z,12.00
2018-12-03T06:57:32.915Z,12.00
2018-12-03T06:58:32.883Z,16.00
2018-12-03T06:59:32.881Z,16.00
2018-12-03T07:00:32.877Z,16.00
2018-12-03T07:01:32.853Z,20.00
2018-12-03T07:02:32.846Z,24.00
2018-12-03T07:03:32.844Z,32.00
2018-12-03T07:04:32.839Z,32.00
2018-12-03T07:05:32.830Z,32.00
2018-12-03T07:06:32.800Z,36.00
2018-12-03T07:07:32.801Z,32.00
2018-12-03T07:08:32.780Z,28.00
2018-12-03T07:09:32.766Z,28.00
2018-12-03T07:10:32.782Z,28.00
2018-12-03T07:11:32.754Z,24.00
2018-12-03T07:12:32.753Z,28.00
2018-12-03T07:13:32.727Z,28.00
2018-12-03T07:14:32.709Z,32.00
2018-12-03T07:15:32.713Z,36.00
2018-12-03T07:16:32.727Z,32.00
2018-12-03T07:17:32.688Z,36.00
2018-12-03T07:18:32.671Z,32.00
2018-12-03T07:19:32.644Z,36.00
2018-12-03T07:20:32.653Z,36.00
2018-12-03T07:21:32.637Z,36.00
2018-12-03T07:22:32.614Z,36.00
2018-12-03T07:23:32.606Z,32.00
2018-12-03T07:24:32.604Z,28.00
2018-12-03T07:25:32.613Z,32.00
2018-12-03T07:26:32.576Z,32.00
2018-12-03T07:27:32.574Z,32.00
2018-12-03T07:28:32.550Z,28.00
2018-12-03T07:29:32.538Z,28.00
2018-12-03T07:30:32.541Z,28.00
2018-12-03T07:31:32.517Z,20.00
2018-12-03T07:32:32.505Z,24.00
2018-12-03T07:33:32.500Z,36.00
2018-12-03T07:34:32.490Z,32.00
2018-12-03T07:35:32.474Z,32.00
2018-12-03T07:36:32.481Z,28.00
2018-12-03T07:37:32.480Z,32.00
2018-12-03T07:38:33.634Z,36.00
2018-12-03T07:39:32.423Z,44.00
2018-12-03T07:40:32.416Z,56.00
2018-12-03T07:41:32.427Z,72.00
2018-12-03T07:42:32.400Z,76.00
2018-12-03T07:43:32.383Z,100.00
2018-12-03T07:44:32.359Z,128.00
2018-12-03T07:45:32.363Z,128.00
2018-12-03T07:46:32.362Z,132.00
2018-12-03T07:47:32.340Z,148.00
2018-12-03T07:48:32.325Z,188.00
2018-12-03T07:49:32.324Z,184.00
2018-12-03T07:50:32.319Z,188.00
2018-12-03T07:51:32.333Z,188.00
2018-12-03T07:52:32.280Z,200.00
2018-12-03T07:53:32.278Z,180.00
2018-12-03T07:54:32.261Z,152.00
2018-12-03T07:55:32.255Z,148.00
2018-12-03T07:56:32.272Z,180.00
2018-12-03T07:57:32.225Z,200.00
2018-12-03T07:58:32.210Z,196.00
2018-12-03T07:59:32.205Z,200.00
2018-12-03T08:00:32.190Z,184.00
2018-12-03T08:01:32.195Z,180.00
2018-12-03T08:02:32.166Z,164.00
2018-12-03T08:03:32.167Z,164.00
2018-12-03T08:04:32.157Z,144.00
2018-12-03T08:05:32.145Z,104.00
2018-12-03T08:06:32.138Z,100.00
2018-12-03T08:07:32.114Z,124.00
2018-12-03T08:08:32.099Z,116.00
2018-12-03T08:09:32.090Z,136.00
2018-12-03T08:10:32.075Z,128.00
2018-12-03T08:11:32.086Z,124.00
2018-12-03T08:12:32.064Z,128.00
2018-12-03T08:13:32.054Z,116.00
2018-12-03T08:14:32.063Z,124.00
2018-12-03T08:15:32.034Z,128.00
2018-12-03T08:16:32.029Z,136.00
2018-12-03T08:17:32.002Z,144.00
2018-12-03T08:18:31.987Z,152.00
2018-12-03T08:19:31.992Z,124.00
2018-12-03T08:20:31.973Z,120.00
2018-12-03T08:21:31.969Z,120.00
2018-12-03T08:22:31.946Z,120.00
2018-12-03T08:23:31.955Z,124.00
2018-12-03T08:24:31.934Z,136.00
2018-12-03T08:25:31.919Z,152.00
2018-12-03T08:26:31.909Z,176.00
2018-12-03T08:27:31.915Z,212.00
2018-12-03T08:28:31.895Z,192.00
2018-12-03T08:29:31.854Z,252.00
2018-12-03T08:30:31.869Z,276.00
2018-12-03T08:31:31.872Z,292.00
2018-12-03T08:32:31.843Z,360.00
2018-12-03T08:33:31.843Z,344.00
2018-12-03T08:34:31.845Z,308.00
2018-12-03T08:35:31.797Z,372.00
2018-12-03T08:36:31.812Z,432.00
2018-12-03T08:37:31.820Z,452.00
2018-12-03T08:38:31.761Z,480.00
2018-12-03T08:39:31.752Z,540.00
2018-12-03T08:40:31.768Z,448.00
2018-12-03T08:41:31.738Z,556.00
2018-12-03T08:42:31.740Z,488.00
2018-12-03T08:43:31.718Z,556.00
2018-12-03T08:44:31.708Z,484.00
2018-12-03T08:45:31.692Z,488.00
2018-12-03T08:46:31.673Z,472.00
2018-12-03T08:47:31.672Z,448.00
2018-12-03T08:48:31.650Z,400.00
2018-12-03T08:49:31.644Z,388.00
2018-12-03T08:50:31.632Z,348.00
2018-12-03T08:51:31.615Z,368.00
2018-12-03T08:52:31.641Z,384.00
2018-12-03T08:53:31.600Z,420.00
2018-12-03T08:54:31.610Z,488.00
2018-12-03T08:55:31.583Z,528.00
2018-12-03T08:56:31.561Z,556.00
2018-12-03T08:57:31.575Z,540.00
2018-12-03T08:58:31.542Z,596.00
2018-12-03T08:59:31.541Z,660.00
2018-12-03T09:00:31.555Z,676.00
2018-12-03T09:01:31.510Z,620.00
2018-12-03T09:02:31.506Z,616.00
2018-12-03T09:03:31.480Z,648.00
2018-12-03T09:04:31.466Z,552.00
2018-12-03T09:05:31.471Z,652.00
2018-12-03T09:06:31.454Z,660.00
2018-12-03T09:07:31.448Z,608.00
2018-12-03T09:08:31.424Z,584.00
2018-12-03T09:09:31.431Z,608.00
2018-12-03T09:10:31.421Z,620.00
2018-12-03T09:11:31.395Z,608.00
2018-12-03T09:12:31.399Z,576.00
2018-12-03T09:13:31.376Z,604.00
2018-12-03T09:14:31.396Z,608.00
2018-12-03T09:15:31.348Z,624.00
2018-12-03T09:16:31.349Z,556.00
2018-12-03T09:17:31.361Z,484.00
2018-12-03T09:18:31.317Z,448.00
2018-12-03T09:19:31.298Z,372.00
2018-12-03T09:20:31.301Z,376.00
2018-12-03T09:21:31.288Z,432.00
2018-12-03T09:22:31.294Z,448.00
2018-12-03T09:23:31.303Z,464.00
2018-12-03T09:24:31.243Z,572.00
2018-12-03T09:25:31.237Z,584.00
2018-12-03T09:26:31.289Z,512.00
2018-12-03T09:27:31.225Z,552.00
2018-12-03T09:28:31.224Z,864.00
2018-12-03T09:29:31.210Z,672.00
2018-12-03T09:30:31.195Z,552.00
2018-12-03T09:31:31.179Z,608.00
2018-12-03T09:32:31.180Z,588.00
2018-12-03T09:33:31.152Z,504.00
2018-12-03T09:34:31.139Z,388.00
2018-12-03T09:35:31.119Z,300.00
2018-12-03T09:36:31.131Z,204.00
2018-12-03T09:37:31.130Z,188.00
2018-12-03T09:38:31.094Z,196.00
2018-12-03T09:39:31.080Z,248.00
2018-12-03T09:40:31.079Z,256.00
2018-12-03T09:41:31.114Z,248.00
2018-12-03T09:42:31.055Z,268.00
2018-12-03T09:43:31.040Z,304.00
2018-12-03T09:44:31.029Z,368.00
2018-12-03T09:45:31.021Z,416.00
2018-12-03T09:46:31.027Z,456.00
2018-12-03T09:47:30.987Z,464.00
2018-12-03T09:48:31.003Z,456.00
2018-12-03T09:49:30.979Z,460.00
2018-12-03T09:50:30.959Z,392.00
2018-12-03T09:51:30.957Z,404.00
2018-12-03T09:52:30.936Z,440.00
2018-12-03T09:53:31.333Z,420.00
2018-12-03T09:54:30.912Z,332.00
2018-12-03T09:55:30.904Z,388.00
2018-12-03T09:56:30.899Z,380.00
2018-12-03T09:57:30.886Z,328.00
2018-12-03T09:58:30.887Z,328.00
2018-12-03T09:59:30.866Z,384.00
2018-12-03T10:00:30.859Z,376.00
2018-12-03T10:01:30.857Z,416.00
2018-12-03T10:02:30.815Z,436.00
2018-12-03T10:03:30.839Z,476.00
2018-12-03T10:04:30.797Z,372.00
2018-12-03T10:05:30.799Z,380.00
2018-12-03T10:06:30.781Z,484.00
2018-12-03T10:07:30.763Z,548.00
2018-12-03T10:08:30.786Z,552.00
2018-12-03T10:09:30.747Z,544.00
2018-12-03T10:10:30.763Z,492.00
2018-12-03T10:11:30.728Z,472.00
2018-12-03T10:12:30.714Z,404.00
2018-12-03T10:13:30.712Z,380.00
2018-12-03T10:14:30.684Z,372.00
2018-12-03T10:15:30.675Z,348.00
2018-12-03T10:16:30.669Z,328.00
2018-12-03T10:17:30.652Z,320.00
2018-12-03T10:18:30.672Z,308.00
2018-12-03T10:19:30.629Z,304.00
2018-12-03T10:20:30.625Z,332.00
2018-12-03T10:21:30.603Z,356.00
2018-12-03T10:22:30.609Z,364.00
2018-12-03T10:23:30.626Z,372.00
2018-12-03T10:24:30.605Z,384.00
2018-12-03T10:25:30.555Z,404.00
2018-12-03T10:26:30.573Z,428.00
2018-12-03T10:27:30.558Z,492.00
2018-12-03T10:28:30.852Z,500.00
2018-12-03T10:29:30.526Z,620.00
2018-12-03T10:30:30.533Z,676.00
2018-12-03T10:31:30.498Z,692.00
2018-12-03T10:32:30.505Z,648.00
2018-12-03T10:33:30.490Z,668.00
2018-12-03T10:34:30.470Z,668.00
2018-12-03T10:35:30.506Z,700.00
2018-12-03T10:36:30.454Z,724.00
2018-12-03T10:37:30.420Z,732.00
2018-12-03T10:38:30.436Z,748.00
2018-12-03T10:39:30.422Z,772.00
2018-12-03T10:40:30.398Z,808.00
2018-12-03T10:41:30.380Z,844.00
2018-12-03T10:42:30.367Z,884.00
2018-12-03T10:43:30.381Z,948.00
2018-12-03T10:44:30.349Z,988.00
2018-12-03T10:45:30.355Z,1024.00
2018-12-03T10:46:30.339Z,980.00
2018-12-03T10:47:30.321Z,928.00
2018-12-03T10:48:30.344Z,832.00
2018-12-03T10:49:30.291Z,708.00
2018-12-03T10:50:30.281Z,612.00
2018-12-03T10:51:30.270Z,540.00
2018-12-03T10:52:30.264Z,500.00
2018-12-03T10:53:30.252Z,484.00
2018-12-03T10:54:30.254Z,484.00
2018-12-03T10:55:30.230Z,504.00
2018-12-03T10:56:30.225Z,524.00
2018-12-03T10:57:30.223Z,548.00
2018-12-03T10:58:30.199Z,532.00
2018-12-03T10:59:30.197Z,512.00
2018-12-03T11:00:30.176Z,528.00
2018-12-03T11:01:30.852Z,560.00
2018-12-03T11:02:30.154Z,600.00
2018-12-03T11:03:30.149Z,624.00
2018-12-03T11:04:30.149Z,680.00
2018-12-03T11:05:30.114Z,784.00
2018-12-03T11:06:30.105Z,872.00
2018-12-03T11:07:30.091Z,1052.00
2018-12-03T11:08:30.077Z,1148.00
2018-12-03T11:09:33.164Z,1208.00
2018-12-03T11:10:30.058Z,1212.00
2018-12-03T11:11:30.069Z,1228.00
2018-12-03T11:12:30.047Z,1244.00
2018-12-03T11:13:30.025Z,1212.00
2018-12-03T11:14:30.024Z,1140.00
2018-12-03T11:15:30.005Z,1048.00
2018-12-03T11:16:29.995Z,1024.00
2018-12-03T11:17:29.979Z,1108.00
2018-12-03T11:18:29.978Z,1064.00
2018-12-03T11:19:29.973Z,1088.00
2018-12-03T11:20:29.950Z,960.00
2018-12-03T11:21:29.934Z,968.00
2018-12-03T11:22:29.950Z,1104.00
2018-12-03T11:23:34.467Z,1224.00
2018-12-03T11:24:29.921Z,1364.00
2018-12-03T11:25:29.882Z,1520.00
2018-12-03T11:26:29.882Z,1376.00
2018-12-03T11:27:29.867Z,1352.00
2018-12-03T11:28:29.867Z,1288.00
2018-12-03T11:29:29.876Z,1228.00
2018-12-03T11:30:29.832Z,1132.00
2018-12-03T11:31:29.816Z,1196.00
2018-12-03T11:32:29.801Z,1236.00
2018-12-03T11:33:29.801Z,984.00
2018-12-03T11:34:29.804Z,992.00
2018-12-03T11:35:29.775Z,1004.00
2018-12-03T11:36:29.767Z,920.00
2018-12-03T11:37:29.751Z,912.00
2018-12-03T11:38:29.739Z,956.00
2018-12-03T11:39:29.758Z,868.00
2018-12-03T11:40:29.760Z,840.00
2018-12-03T11:41:29.726Z,740.00
2018-12-03T11:42:29.701Z,928.00
2018-12-03T11:43:29.688Z,1148.00
2018-12-03T11:44:29.683Z,900.00
2018-12-03T11:45:29.694Z,1032.00
2018-12-03T11:46:29.651Z,872.00
2018-12-03T11:47:29.655Z,852.00
2018-12-03T11:48:29.625Z,884.00
2018-12-03T11:49:29.629Z,1052.00
2018-12-03T11:50:29.633Z,1052.00
2018-12-03T11:51:29.598Z,1144.00
2018-12-03T11:52:29.584Z,1180.00
2018-12-03T11:53:29.570Z,1200.00
2018-12-03T11:54:29.566Z,1096.00
2018-12-03T11:55:29.557Z,924.00
2018-12-03T11:56:29.566Z,932.00
2018-12-03T11:57:29.532Z,996.00
2018-12-03T11:58:29.524Z,660.00
2018-12-03T11:59:29.502Z,716.00
2018-12-03T12:00:29.505Z,648.00
2018-12-03T12:01:29.496Z,592.00
2018-12-03T12:02:29.476Z,592.00
2018-12-03T12:03:29.457Z,656.00
2018-12-03T12:04:30.214Z,640.00
2018-12-03T12:05:29.447Z,784.00
2018-12-03T12:06:29.449Z,764.00
2018-12-03T12:07:29.439Z,792.00
2018-12-03T12:08:29.417Z,804.00
2018-12-03T12:09:29.400Z,664.00
2018-12-03T12:10:29.377Z,680.00
2018-12-03T12:11:29.391Z,688.00
2018-12-03T12:12:29.358Z,612.00
2018-12-03T12:13:29.368Z,584.00
2018-12-03T12:14:29.337Z,688.00
2018-12-03T12:15:29.342Z,752.00
2018-12-03T12:16:29.335Z,780.00
2018-12-03T12:17:29.314Z,748.00
2018-12-03T12:18:29.297Z,784.00
2018-12-03T12:19:29.281Z,840.00
2018-12-03T12:20:29.273Z,816.00
2018-12-03T12:21:29.299Z,764.00
2018-12-03T12:22:29.245Z,856.00
2018-12-03T12:23:29.249Z,968.00
2018-12-03T12:24:29.223Z,1116.00
2018-12-03T12:25:29.213Z,984.00
2018-12-03T12:26:29.225Z,968.00
2018-12-03T12:27:29.185Z,1160.00
2018-12-03T12:28:29.189Z,964.00
2018-12-03T12:29:29.159Z,936.00
2018-12-03T12:30:29.167Z,936.00
2018-12-03T12:31:29.157Z,924.00
2018-12-03T12:32:29.147Z,808.00
2018-12-03T12:33:29.110Z,812.00
2018-12-03T12:34:29.128Z,740.00
2018-12-03T12:35:29.098Z,740.00
2018-12-03T12:36:29.112Z,688.00
2018-12-03T12:37:29.079Z,740.00
2018-12-03T12:38:29.080Z,776.00
2018-12-03T12:39:29.059Z,812.00
2018-12-03T12:40:29.050Z,808.00
2018-12-03T12:41:29.088Z,800.00
2018-12-03T12:42:31.774Z,812.00
2018-12-03T12:43:29.022Z,760.00
2018-12-03T12:44:29.010Z,664.00
2018-12-03T12:45:28.986Z,664.00
2018-12-03T12:46:28.995Z,668.00
2018-12-03T12:47:28.958Z,644.00
2018-12-03T12:48:28.962Z,668.00
2018-12-03T12:49:28.942Z,688.00
2018-12-03T12:50:28.936Z,636.00
2018-12-03T12:51:28.934Z,664.00
2018-12-03T12:52:28.903Z,768.00
2018-12-03T12:53:28.904Z,748.00
2018-12-03T12:54:28.888Z,700.00